sensor_id;sensor_type;location;lat;lon;timestamp;P1;durP1;ratioP1;P2;durP2;ratioP2
15230;SDS011;32569;51.762;8.564;2024-01-27T00:01:02;5.30;;;2.90;;
15230;SDS011;32569;51.762;8.564;2024-01-27T00:03:32;6.90;;;3.20;;
15230;SDS011;32569;51.762;8.564;2024-01-27T00:05:59;8.10;;;3.33;;
15230;SDS011;32569;51.762;8.564;2024-01-27T00:08:25;4.63;;;3.00;;
15230;SDS011;32569;51.762;8.564;2024-01-27T00:10:53;7.37;;;2.90;;
15230;SDS011;32569;51.762;8.564;2024-01-27T00:13:20;3.87;;;2.83;;
15230;SDS011;32569;51.762;8.564;2024-01-27T00:15:46;4.30;;;2.97;;
15230;SDS011;32569;51.762;8.564;2024-01-27T00:18:14;3.77;;;2.30;;
15230;SDS011;32569;51.762;8.564;2024-01-27T00:20:41;6.07;;;3.00;;
15230;SDS011;32569;51.762;8.564;2024-01-27T00:23:08;5.27;;;2.60;;
15230;SDS011;32569;51.762;8.564;2024-01-27T00:25:34;4.30;;;3.23;;
15230;SDS011;32569;51.762;8.564;2024-01-27T00:28:02;4.13;;;2.40;;
15230;SDS011;32569;51.762;8.564;2024-01-27T00:30:29;5.97;;;2.70;;
15230;SDS011;32569;51.762;8.564;2024-01-27T00:32:56;5.27;;;2.63;;
15230;SDS011;32569;51.762;8.564;2024-01-27T00:35:23;5.87;;;2.83;;
15230;SDS011;32569;51.762;8.564;2024-01-27T00:37:49;3.77;;;2.80;;
15230;SDS011;32569;51.762;8.564;2024-01-27T00:40:16;5.13;;;2.73;;
15230;SDS011;32569;51.762;8.564;2024-01-27T00:42:43;3.67;;;2.50;;
15230;SDS011;32569;51.762;8.564;2024-01-27T00:45:10;4.23;;;3.10;;
15230;SDS011;32569;51.762;8.564;2024-01-27T00:47:37;4.47;;;2.67;;
15230;SDS011;32569;51.762;8.564;2024-01-27T00:50:04;4.63;;;3.10;;
15230;SDS011;32569;51.762;8.564;2024-01-27T00:52:33;5.57;;;2.90;;
15230;SDS011;32569;51.762;8.564;2024-01-27T00:55:00;5.67;;;2.63;;
15230;SDS011;32569;51.762;8.564;2024-01-27T00:57:26;5.07;;;2.43;;
15230;SDS011;32569;51.762;8.564;2024-01-27T00:59:53;4.03;;;2.37;;
15230;SDS011;32569;51.762;8.564;2024-01-27T01:02:21;3.60;;;2.50;;
15230;SDS011;32569;51.762;8.564;2024-01-27T01:04:47;4.93;;;2.83;;
15230;SDS011;32569;51.762;8.564;2024-01-27T01:07:14;6.23;;;2.80;;
15230;SDS011;32569;51.762;8.564;2024-01-27T01:09:41;4.27;;;2.20;;
15230;SDS011;32569;51.762;8.564;2024-01-27T01:12:07;4.73;;;2.60;;
15230;SDS011;32569;51.762;8.564;2024-01-27T01:14:34;4.43;;;2.60;;
15230;SDS011;32569;51.762;8.564;2024-01-27T01:17:01;3.70;;;2.43;;
15230;SDS011;32569;51.762;8.564;2024-01-27T01:19:31;5.03;;;2.70;;
15230;SDS011;32569;51.762;8.564;2024-01-27T01:22:02;5.90;;;2.80;;
15230;SDS011;32569;51.762;8.564;2024-01-27T01:24:29;2.57;;;2.20;;
15230;SDS011;32569;51.762;8.564;2024-01-27T01:26:56;4.57;;;2.30;;
15230;SDS011;32569;51.762;8.564;2024-01-27T01:29:23;5.13;;;2.90;;
15230;SDS011;32569;51.762;8.564;2024-01-27T01:31:50;4.03;;;2.87;;
15230;SDS011;32569;51.762;8.564;2024-01-27T01:34:20;3.23;;;2.83;;
15230;SDS011;32569;51.762;8.564;2024-01-27T01:36:48;4.57;;;2.63;;
15230;SDS011;32569;51.762;8.564;2024-01-27T01:39:14;5.53;;;3.00;;
15230;SDS011;32569;51.762;8.564;2024-01-27T01:41:41;4.50;;;2.77;;
15230;SDS011;32569;51.762;8.564;2024-01-27T01:44:08;3.03;;;2.73;;
15230;SDS011;32569;51.762;8.564;2024-01-27T01:46:34;6.47;;;3.30;;
15230;SDS011;32569;51.762;8.564;2024-01-27T01:49:01;4.97;;;2.87;;
15230;SDS011;32569;51.762;8.564;2024-01-27T01:51:28;3.20;;;2.70;;
15230;SDS011;32569;51.762;8.564;2024-01-27T01:53:57;5.90;;;3.03;;
15230;SDS011;32569;51.762;8.564;2024-01-27T01:56:24;4.93;;;2.60;;
15230;SDS011;32569;51.762;8.564;2024-01-27T01:58:52;5.80;;;3.00;;
15230;SDS011;32569;51.762;8.564;2024-01-27T02:01:20;4.00;;;2.90;;
15230;SDS011;32569;51.762;8.564;2024-01-27T02:03:51;4.07;;;2.80;;
15230;SDS011;32569;51.762;8.564;2024-01-27T02:06:18;5.67;;;3.40;;
15230;SDS011;32569;51.762;8.564;2024-01-27T02:08:45;5.80;;;2.90;;
15230;SDS011;32569;51.762;8.564;2024-01-27T02:11:13;3.83;;;3.00;;
15230;SDS011;32569;51.762;8.564;2024-01-27T02:13:40;5.03;;;3.03;;
15230;SDS011;32569;51.762;8.564;2024-01-27T02:16:06;4.70;;;2.97;;
15230;SDS011;32569;51.762;8.564;2024-01-27T02:18:36;3.87;;;3.10;;
15230;SDS011;32569;51.762;8.564;2024-01-27T02:21:02;5.50;;;2.83;;
15230;SDS011;32569;51.762;8.564;2024-01-27T02:23:37;4.20;;;3.10;;
15230;SDS011;32569;51.762;8.564;2024-01-27T02:26:05;5.87;;;3.10;;
15230;SDS011;32569;51.762;8.564;2024-01-27T02:28:32;3.93;;;2.87;;
15230;SDS011;32569;51.762;8.564;2024-01-27T02:31:00;5.07;;;3.10;;
15230;SDS011;32569;51.762;8.564;2024-01-27T02:33:27;4.83;;;2.90;;
15230;SDS011;32569;51.762;8.564;2024-01-27T02:35:53;3.33;;;2.80;;
15230;SDS011;32569;51.762;8.564;2024-01-27T02:38:20;5.30;;;3.30;;
15230;SDS011;32569;51.762;8.564;2024-01-27T02:40:47;4.00;;;3.37;;
15230;SDS011;32569;51.762;8.564;2024-01-27T02:43:14;6.17;;;3.50;;
15230;SDS011;32569;51.762;8.564;2024-01-27T02:45:41;3.77;;;3.47;;
15230;SDS011;32569;51.762;8.564;2024-01-27T02:48:08;4.87;;;3.20;;
15230;SDS011;32569;51.762;8.564;2024-01-27T02:50:34;4.67;;;3.37;;
15230;SDS011;32569;51.762;8.564;2024-01-27T02:53:01;6.47;;;3.50;;
15230;SDS011;32569;51.762;8.564;2024-01-27T02:55:27;5.53;;;3.30;;
15230;SDS011;32569;51.762;8.564;2024-01-27T02:57:54;3.97;;;3.10;;
15230;SDS011;32569;51.762;8.564;2024-01-27T03:00:22;5.57;;;3.37;;
15230;SDS011;32569;51.762;8.564;2024-01-27T03:02:48;3.90;;;2.80;;
15230;SDS011;32569;51.762;8.564;2024-01-27T03:05:15;3.83;;;3.00;;
15230;SDS011;32569;51.762;8.564;2024-01-27T03:07:42;3.77;;;2.80;;
15230;SDS011;32569;51.762;8.564;2024-01-27T03:10:08;3.47;;;3.17;;
15230;SDS011;32569;51.762;8.564;2024-01-27T03:12:36;4.90;;;3.17;;
15230;SDS011;32569;51.762;8.564;2024-01-27T03:15:08;3.70;;;3.10;;
15230;SDS011;32569;51.762;8.564;2024-01-27T03:17:36;3.77;;;3.17;;
15230;SDS011;32569;51.762;8.564;2024-01-27T03:20:03;4.87;;;3.20;;
15230;SDS011;32569;51.762;8.564;2024-01-27T03:22:33;3.23;;;2.90;;
15230;SDS011;32569;51.762;8.564;2024-01-27T03:25:00;5.50;;;3.30;;
15230;SDS011;32569;51.762;8.564;2024-01-27T03:27:26;5.07;;;3.27;;
15230;SDS011;32569;51.762;8.564;2024-01-27T03:29:53;3.93;;;2.97;;
15230;SDS011;32569;51.762;8.564;2024-01-27T03:32:20;3.33;;;3.03;;
15230;SDS011;32569;51.762;8.564;2024-01-27T03:34:47;4.63;;;4.20;;
15230;SDS011;32569;51.762;8.564;2024-01-27T03:37:14;5.20;;;3.40;;
15230;SDS011;32569;51.762;8.564;2024-01-27T03:39:41;5.40;;;3.80;;
15230;SDS011;32569;51.762;8.564;2024-01-27T03:42:08;4.20;;;3.33;;
15230;SDS011;32569;51.762;8.564;2024-01-27T03:44:35;6.37;;;3.67;;
15230;SDS011;32569;51.762;8.564;2024-01-27T03:47:01;5.13;;;3.30;;
15230;SDS011;32569;51.762;8.564;2024-01-27T03:49:28;5.97;;;3.00;;
15230;SDS011;32569;51.762;8.564;2024-01-27T03:51:56;5.47;;;3.47;;
15230;SDS011;32569;51.762;8.564;2024-01-27T03:54:26;5.40;;;3.63;;
15230;SDS011;32569;51.762;8.564;2024-01-27T03:56:52;4.73;;;3.47;;
15230;SDS011;32569;51.762;8.564;2024-01-27T03:59:20;3.77;;;3.30;;
15230;SDS011;32569;51.762;8.564;2024-01-27T04:01:46;4.13;;;3.73;;
15230;SDS011;32569;51.762;8.564;2024-01-27T04:04:13;4.67;;;2.93;;
15230;SDS011;32569;51.762;8.564;2024-01-27T04:06:40;5.23;;;3.50;;
15230;SDS011;32569;51.762;8.564;2024-01-27T04:09:08;4.87;;;3.37;;
15230;SDS011;32569;51.762;8.564;2024-01-27T04:11:35;6.17;;;3.57;;
15230;SDS011;32569;51.762;8.564;2024-01-27T04:14:07;4.67;;;3.67;;
15230;SDS011;32569;51.762;8.564;2024-01-27T04:16:34;4.53;;;3.70;;
15230;SDS011;32569;51.762;8.564;2024-01-27T04:19:01;4.43;;;4.00;;
15230;SDS011;32569;51.762;8.564;2024-01-27T04:21:34;4.77;;;3.43;;
15230;SDS011;32569;51.762;8.564;2024-01-27T04:24:01;4.53;;;4.03;;
15230;SDS011;32569;51.762;8.564;2024-01-27T04:26:29;3.40;;;3.20;;
15230;SDS011;32569;51.762;8.564;2024-01-27T04:28:56;5.20;;;3.30;;
15230;SDS011;32569;51.762;8.564;2024-01-27T04:31:22;5.43;;;3.67;;
15230;SDS011;32569;51.762;8.564;2024-01-27T04:33:49;4.53;;;3.30;;
15230;SDS011;32569;51.762;8.564;2024-01-27T04:36:24;3.67;;;3.37;;
15230;SDS011;32569;51.762;8.564;2024-01-27T04:38:51;3.60;;;3.13;;
15230;SDS011;32569;51.762;8.564;2024-01-27T04:41:18;4.57;;;3.80;;
15230;SDS011;32569;51.762;8.564;2024-01-27T04:43:45;3.60;;;3.23;;
15230;SDS011;32569;51.762;8.564;2024-01-27T04:46:12;3.97;;;3.30;;
15230;SDS011;32569;51.762;8.564;2024-01-27T04:48:39;3.93;;;3.53;;
15230;SDS011;32569;51.762;8.564;2024-01-27T04:51:05;4.20;;;3.33;;
15230;SDS011;32569;51.762;8.564;2024-01-27T04:53:32;3.90;;;3.50;;
15230;SDS011;32569;51.762;8.564;2024-01-27T04:56:01;4.30;;;3.90;;
15230;SDS011;32569;51.762;8.564;2024-01-27T04:58:32;3.83;;;3.40;;
15230;SDS011;32569;51.762;8.564;2024-01-27T05:01:00;6.03;;;3.70;;
15230;SDS011;32569;51.762;8.564;2024-01-27T05:03:27;3.53;;;3.23;;
15230;SDS011;32569;51.762;8.564;2024-01-27T05:05:54;4.53;;;3.97;;
15230;SDS011;32569;51.762;8.564;2024-01-27T05:08:21;5.23;;;3.40;;
15230;SDS011;32569;51.762;8.564;2024-01-27T05:10:47;4.17;;;3.77;;
15230;SDS011;32569;51.762;8.564;2024-01-27T05:13:14;5.23;;;4.37;;
15230;SDS011;32569;51.762;8.564;2024-01-27T05:15:41;5.90;;;3.20;;
15230;SDS011;32569;51.762;8.564;2024-01-27T05:18:09;5.60;;;3.60;;
15230;SDS011;32569;51.762;8.564;2024-01-27T05:20:36;4.70;;;3.37;;
15230;SDS011;32569;51.762;8.564;2024-01-27T05:23:02;8.93;;;3.70;;
15230;SDS011;32569;51.762;8.564;2024-01-27T05:25:32;4.40;;;3.97;;
15230;SDS011;32569;51.762;8.564;2024-01-27T05:27:59;5.27;;;3.90;;
15230;SDS011;32569;51.762;8.564;2024-01-27T05:30:28;6.40;;;3.60;;
15230;SDS011;32569;51.762;8.564;2024-01-27T05:32:55;4.83;;;3.20;;
15230;SDS011;32569;51.762;8.564;2024-01-27T05:35:23;4.13;;;3.77;;
15230;SDS011;32569;51.762;8.564;2024-01-27T05:37:50;3.83;;;3.50;;
15230;SDS011;32569;51.762;8.564;2024-01-27T05:40:17;5.67;;;3.80;;
15230;SDS011;32569;51.762;8.564;2024-01-27T05:42:43;5.80;;;4.00;;
15230;SDS011;32569;51.762;8.564;2024-01-27T05:45:11;5.83;;;3.80;;
15230;SDS011;32569;51.762;8.564;2024-01-27T05:47:37;5.07;;;3.93;;
15230;SDS011;32569;51.762;8.564;2024-01-27T05:50:04;3.97;;;3.57;;
15230;SDS011;32569;51.762;8.564;2024-01-27T05:52:37;5.67;;;3.60;;
15230;SDS011;32569;51.762;8.564;2024-01-27T05:55:06;6.90;;;3.50;;
15230;SDS011;32569;51.762;8.564;2024-01-27T05:57:35;4.63;;;3.77;;
15230;SDS011;32569;51.762;8.564;2024-01-27T06:00:01;3.73;;;3.43;;
15230;SDS011;32569;51.762;8.564;2024-01-27T06:02:28;3.37;;;3.00;;
15230;SDS011;32569;51.762;8.564;2024-01-27T06:04:55;4.87;;;3.57;;
15230;SDS011;32569;51.762;8.564;2024-01-27T06:07:22;3.40;;;3.10;;
15230;SDS011;32569;51.762;8.564;2024-01-27T06:09:50;3.33;;;2.90;;
15230;SDS011;32569;51.762;8.564;2024-01-27T06:12:16;4.83;;;3.60;;
15230;SDS011;32569;51.762;8.564;2024-01-27T06:14:44;4.13;;;3.53;;
15230;SDS011;32569;51.762;8.564;2024-01-27T06:17:10;4.60;;;3.60;;
15230;SDS011;32569;51.762;8.564;2024-01-27T06:19:39;3.33;;;3.07;;
15230;SDS011;32569;51.762;8.564;2024-01-27T06:22:06;4.67;;;3.50;;
15230;SDS011;32569;51.762;8.564;2024-01-27T06:24:41;6.70;;;3.20;;
15230;SDS011;32569;51.762;8.564;2024-01-27T06:27:09;4.47;;;3.30;;
15230;SDS011;32569;51.762;8.564;2024-01-27T06:29:36;6.03;;;4.00;;
15230;SDS011;32569;51.762;8.564;2024-01-27T06:32:03;4.13;;;3.13;;
15230;SDS011;32569;51.762;8.564;2024-01-27T06:34:31;5.27;;;3.53;;
15230;SDS011;32569;51.762;8.564;2024-01-27T06:36:58;3.43;;;3.10;;
15230;SDS011;32569;51.762;8.564;2024-01-27T06:39:24;4.87;;;3.50;;
15230;SDS011;32569;51.762;8.564;2024-01-27T06:41:51;3.80;;;3.40;;
15230;SDS011;32569;51.762;8.564;2024-01-27T06:44:19;4.93;;;3.40;;
15230;SDS011;32569;51.762;8.564;2024-01-27T06:46:45;3.87;;;3.53;;
15230;SDS011;32569;51.762;8.564;2024-01-27T06:49:15;3.87;;;3.47;;
15230;SDS011;32569;51.762;8.564;2024-01-27T06:51:41;4.27;;;3.23;;
15230;SDS011;32569;51.762;8.564;2024-01-27T06:54:10;5.83;;;3.90;;
15230;SDS011;32569;51.762;8.564;2024-01-27T06:56:37;5.70;;;3.30;;
15230;SDS011;32569;51.762;8.564;2024-01-27T06:59:03;4.53;;;3.03;;
15230;SDS011;32569;51.762;8.564;2024-01-27T07:01:34;4.33;;;3.40;;
15230;SDS011;32569;51.762;8.564;2024-01-27T07:04:04;4.67;;;3.00;;
15230;SDS011;32569;51.762;8.564;2024-01-27T07:06:31;4.40;;;3.30;;
15230;SDS011;32569;51.762;8.564;2024-01-27T07:08:58;3.80;;;3.40;;
15230;SDS011;32569;51.762;8.564;2024-01-27T07:11:24;4.43;;;3.47;;
15230;SDS011;32569;51.762;8.564;2024-01-27T07:13:51;3.40;;;3.10;;
15230;SDS011;32569;51.762;8.564;2024-01-27T07:16:17;4.10;;;3.13;;
15230;SDS011;32569;51.762;8.564;2024-01-27T07:18:46;4.33;;;2.97;;
15230;SDS011;32569;51.762;8.564;2024-01-27T07:21:14;4.80;;;3.50;;
15230;SDS011;32569;51.762;8.564;2024-01-27T07:23:42;4.10;;;3.70;;
15230;SDS011;32569;51.762;8.564;2024-01-27T07:26:09;4.93;;;3.33;;
15230;SDS011;32569;51.762;8.564;2024-01-27T07:28:36;4.33;;;3.67;;
15230;SDS011;32569;51.762;8.564;2024-01-27T07:31:03;4.90;;;3.33;;
15230;SDS011;32569;51.762;8.564;2024-01-27T07:33:30;4.40;;;3.17;;
15230;SDS011;32569;51.762;8.564;2024-01-27T07:35:59;3.43;;;2.90;;
15230;SDS011;32569;51.762;8.564;2024-01-27T07:38:26;4.70;;;3.13;;
15230;SDS011;32569;51.762;8.564;2024-01-27T07:40:53;4.67;;;3.20;;
15230;SDS011;32569;51.762;8.564;2024-01-27T07:43:19;3.77;;;3.23;;
15230;SDS011;32569;51.762;8.564;2024-01-27T07:45:46;3.67;;;3.37;;
15230;SDS011;32569;51.762;8.564;2024-01-27T07:48:13;4.77;;;3.43;;
15230;SDS011;32569;51.762;8.564;2024-01-27T07:50:39;4.13;;;3.50;;
15230;SDS011;32569;51.762;8.564;2024-01-27T07:53:12;3.67;;;3.30;;
15230;SDS011;32569;51.762;8.564;2024-01-27T07:55:38;4.83;;;3.73;;
15230;SDS011;32569;51.762;8.564;2024-01-27T07:58:05;3.60;;;3.30;;
15230;SDS011;32569;51.762;8.564;2024-01-27T08:00:31;7.87;;;3.70;;
15230;SDS011;32569;51.762;8.564;2024-01-27T08:02:58;4.87;;;3.10;;
15230;SDS011;32569;51.762;8.564;2024-01-27T08:05:25;5.20;;;3.93;;
15230;SDS011;32569;51.762;8.564;2024-01-27T08:07:52;4.70;;;3.37;;
15230;SDS011;32569;51.762;8.564;2024-01-27T08:10:20;4.13;;;3.47;;
15230;SDS011;32569;51.762;8.564;2024-01-27T08:12:48;4.23;;;3.80;;
15230;SDS011;32569;51.762;8.564;2024-01-27T08:15:14;8.03;;;3.87;;
15230;SDS011;32569;51.762;8.564;2024-01-27T08:17:41;6.10;;;3.87;;
15230;SDS011;32569;51.762;8.564;2024-01-27T08:20:08;3.87;;;3.13;;
15230;SDS011;32569;51.762;8.564;2024-01-27T08:22:35;3.97;;;3.50;;
15230;SDS011;32569;51.762;8.564;2024-01-27T08:25:02;4.87;;;3.40;;
15230;SDS011;32569;51.762;8.564;2024-01-27T08:27:30;4.97;;;3.50;;
15230;SDS011;32569;51.762;8.564;2024-01-27T08:29:57;4.07;;;3.47;;
15230;SDS011;32569;51.762;8.564;2024-01-27T08:32:23;5.60;;;3.10;;
15230;SDS011;32569;51.762;8.564;2024-01-27T08:34:50;6.33;;;3.53;;
15230;SDS011;32569;51.762;8.564;2024-01-27T08:37:18;3.33;;;2.90;;
15230;SDS011;32569;51.762;8.564;2024-01-27T08:39:45;3.37;;;3.07;;
15230;SDS011;32569;51.762;8.564;2024-01-27T08:42:12;4.50;;;3.20;;
15230;SDS011;32569;51.762;8.564;2024-01-27T08:44:40;5.57;;;3.03;;
15230;SDS011;32569;51.762;8.564;2024-01-27T08:47:06;4.40;;;2.80;;
15230;SDS011;32569;51.762;8.564;2024-01-27T08:49:33;3.30;;;2.57;;
15230;SDS011;32569;51.762;8.564;2024-01-27T08:51:59;3.63;;;2.63;;
15230;SDS011;32569;51.762;8.564;2024-01-27T08:54:26;5.13;;;2.70;;
15230;SDS011;32569;51.762;8.564;2024-01-27T08:56:53;3.80;;;2.70;;
15230;SDS011;32569;51.762;8.564;2024-01-27T08:59:19;4.30;;;3.10;;
15230;SDS011;32569;51.762;8.564;2024-01-27T09:01:48;3.23;;;2.93;;
15230;SDS011;32569;51.762;8.564;2024-01-27T09:04:14;3.97;;;3.20;;
15230;SDS011;32569;51.762;8.564;2024-01-27T09:06:41;6.27;;;3.33;;
15230;SDS011;32569;51.762;8.564;2024-01-27T09:09:08;4.83;;;3.27;;
15230;SDS011;32569;51.762;8.564;2024-01-27T09:11:34;4.13;;;3.07;;
15230;SDS011;32569;51.762;8.564;2024-01-27T09:14:01;3.70;;;2.90;;
15230;SDS011;32569;51.762;8.564;2024-01-27T09:16:30;4.43;;;3.50;;
15230;SDS011;32569;51.762;8.564;2024-01-27T09:18:58;3.97;;;2.73;;
15230;SDS011;32569;51.762;8.564;2024-01-27T09:21:25;3.57;;;2.53;;
15230;SDS011;32569;51.762;8.564;2024-01-27T09:23:55;4.13;;;2.70;;
15230;SDS011;32569;51.762;8.564;2024-01-27T09:26:22;4.97;;;3.00;;
15230;SDS011;32569;51.762;8.564;2024-01-27T09:28:48;4.47;;;3.03;;
15230;SDS011;32569;51.762;8.564;2024-01-27T09:31:19;4.07;;;2.87;;
15230;SDS011;32569;51.762;8.564;2024-01-27T09:33:48;4.50;;;3.03;;
15230;SDS011;32569;51.762;8.564;2024-01-27T09:36:17;5.30;;;3.10;;
15230;SDS011;32569;51.762;8.564;2024-01-27T09:38:43;3.23;;;2.70;;
15230;SDS011;32569;51.762;8.564;2024-01-27T09:41:10;5.67;;;2.90;;
15230;SDS011;32569;51.762;8.564;2024-01-27T09:43:39;4.90;;;4.03;;
15230;SDS011;32569;51.762;8.564;2024-01-27T09:46:08;6.00;;;3.10;;
15230;SDS011;32569;51.762;8.564;2024-01-27T09:48:35;4.57;;;3.10;;
15230;SDS011;32569;51.762;8.564;2024-01-27T09:51:02;3.83;;;2.97;;
15230;SDS011;32569;51.762;8.564;2024-01-27T09:53:32;4.77;;;3.47;;
15230;SDS011;32569;51.762;8.564;2024-01-27T09:55:59;3.37;;;2.90;;
15230;SDS011;32569;51.762;8.564;2024-01-27T09:58:28;4.77;;;3.10;;
15230;SDS011;32569;51.762;8.564;2024-01-27T10:00:56;3.67;;;2.90;;
15230;SDS011;32569;51.762;8.564;2024-01-27T10:03:24;5.23;;;2.80;;
15230;SDS011;32569;51.762;8.564;2024-01-27T10:05:51;3.83;;;2.80;;
15230;SDS011;32569;51.762;8.564;2024-01-27T10:08:20;2.70;;;2.50;;
15230;SDS011;32569;51.762;8.564;2024-01-27T10:10:48;2.67;;;2.47;;
15230;SDS011;32569;51.762;8.564;2024-01-27T10:13:19;4.67;;;2.90;;
15230;SDS011;32569;51.762;8.564;2024-01-27T10:15:58;5.07;;;3.10;;
15230;SDS011;32569;51.762;8.564;2024-01-27T10:18:28;3.80;;;2.90;;
15230;SDS011;32569;51.762;8.564;2024-01-27T10:20:55;4.03;;;2.80;;
15230;SDS011;32569;51.762;8.564;2024-01-27T10:23:22;3.93;;;3.20;;
15230;SDS011;32569;51.762;8.564;2024-01-27T10:25:51;3.93;;;3.10;;
15230;SDS011;32569;51.762;8.564;2024-01-27T10:28:18;5.53;;;3.83;;
15230;SDS011;32569;51.762;8.564;2024-01-27T10:30:45;3.50;;;3.20;;
15230;SDS011;32569;51.762;8.564;2024-01-27T10:33:13;4.73;;;2.83;;
15230;SDS011;32569;51.762;8.564;2024-01-27T10:35:40;5.50;;;3.00;;
15230;SDS011;32569;51.762;8.564;2024-01-27T10:38:07;3.03;;;2.83;;
15230;SDS011;32569;51.762;8.564;2024-01-27T10:40:35;4.57;;;2.67;;
15230;SDS011;32569;51.762;8.564;2024-01-27T10:43:05;6.20;;;2.67;;
15230;SDS011;32569;51.762;8.564;2024-01-27T10:45:36;4.20;;;2.87;;
15230;SDS011;32569;51.762;8.564;2024-01-27T10:48:04;5.73;;;3.13;;
15230;SDS011;32569;51.762;8.564;2024-01-27T10:50:32;4.93;;;3.30;;
15230;SDS011;32569;51.762;8.564;2024-01-27T10:53:03;3.83;;;3.20;;
15230;SDS011;32569;51.762;8.564;2024-01-27T10:55:31;4.10;;;2.30;;
15230;SDS011;32569;51.762;8.564;2024-01-27T10:58:00;5.20;;;3.03;;
15230;SDS011;32569;51.762;8.564;2024-01-27T11:00:29;3.90;;;3.17;;
15230;SDS011;32569;51.762;8.564;2024-01-27T11:02:58;3.97;;;2.47;;
15230;SDS011;32569;51.762;8.564;2024-01-27T11:05:27;4.30;;;2.57;;
15230;SDS011;32569;51.762;8.564;2024-01-27T11:07:54;3.60;;;2.80;;
15230;SDS011;32569;51.762;8.564;2024-01-27T11:10:24;4.53;;;2.90;;
15230;SDS011;32569;51.762;8.564;2024-01-27T11:13:00;5.20;;;2.50;;
15230;SDS011;32569;51.762;8.564;2024-01-27T11:15:28;3.13;;;2.50;;
15230;SDS011;32569;51.762;8.564;2024-01-27T11:17:56;4.53;;;3.03;;
15230;SDS011;32569;51.762;8.564;2024-01-27T11:20:27;5.80;;;3.00;;
15230;SDS011;32569;51.762;8.564;2024-01-27T11:23:07;3.07;;;2.70;;
15230;SDS011;32569;51.762;8.564;2024-01-27T11:25:34;2.97;;;2.50;;
15230;SDS011;32569;51.762;8.564;2024-01-27T11:28:10;4.00;;;3.00;;
15230;SDS011;32569;51.762;8.564;2024-01-27T11:30:39;3.37;;;2.77;;
15230;SDS011;32569;51.762;8.564;2024-01-27T11:33:10;5.33;;;2.73;;
15230;SDS011;32569;51.762;8.564;2024-01-27T11:35:37;4.80;;;2.83;;
15230;SDS011;32569;51.762;8.564;2024-01-27T11:38:04;3.20;;;2.33;;
15230;SDS011;32569;51.762;8.564;2024-01-27T11:40:43;2.97;;;2.60;;
15230;SDS011;32569;51.762;8.564;2024-01-27T11:43:11;2.63;;;2.30;;
15230;SDS011;32569;51.762;8.564;2024-01-27T11:45:43;5.53;;;2.50;;
15230;SDS011;32569;51.762;8.564;2024-01-27T11:48:09;2.90;;;2.00;;
15230;SDS011;32569;51.762;8.564;2024-01-27T11:50:36;3.33;;;2.70;;
15230;SDS011;32569;51.762;8.564;2024-01-27T11:53:03;3.13;;;2.43;;
15230;SDS011;32569;51.762;8.564;2024-01-27T11:55:34;6.10;;;2.70;;
15230;SDS011;32569;51.762;8.564;2024-01-27T11:58:01;3.60;;;2.50;;
15230;SDS011;32569;51.762;8.564;2024-01-27T12:00:27;3.43;;;2.40;;
15230;SDS011;32569;51.762;8.564;2024-01-27T12:02:55;4.00;;;2.70;;
15230;SDS011;32569;51.762;8.564;2024-01-27T12:05:22;3.23;;;2.30;;
15230;SDS011;32569;51.762;8.564;2024-01-27T12:07:49;2.47;;;2.27;;
15230;SDS011;32569;51.762;8.564;2024-01-27T12:10:16;5.50;;;2.00;;
15230;SDS011;32569;51.762;8.564;2024-01-27T12:12:44;3.43;;;2.53;;
15230;SDS011;32569;51.762;8.564;2024-01-27T12:15:10;4.30;;;2.00;;
15230;SDS011;32569;51.762;8.564;2024-01-27T12:17:40;4.37;;;2.73;;
15230;SDS011;32569;51.762;8.564;2024-01-27T12:20:13;3.20;;;2.30;;
15230;SDS011;32569;51.762;8.564;2024-01-27T12:22:41;2.90;;;2.40;;
15230;SDS011;32569;51.762;8.564;2024-01-27T12:25:08;4.53;;;2.27;;
15230;SDS011;32569;51.762;8.564;2024-01-27T12:27:38;3.63;;;2.30;;
15230;SDS011;32569;51.762;8.564;2024-01-27T12:30:06;4.77;;;2.47;;
15230;SDS011;32569;51.762;8.564;2024-01-27T12:32:33;2.63;;;2.07;;
15230;SDS011;32569;51.762;8.564;2024-01-27T12:35:03;2.83;;;2.43;;
15230;SDS011;32569;51.762;8.564;2024-01-27T12:37:32;5.87;;;2.57;;
15230;SDS011;32569;51.762;8.564;2024-01-27T12:39:59;3.33;;;2.23;;
15230;SDS011;32569;51.762;8.564;2024-01-27T12:42:26;4.10;;;2.60;;
15230;SDS011;32569;51.762;8.564;2024-01-27T12:44:53;2.97;;;2.13;;
15230;SDS011;32569;51.762;8.564;2024-01-27T12:47:19;4.90;;;2.20;;
15230;SDS011;32569;51.762;8.564;2024-01-27T12:49:46;2.20;;;1.80;;
15230;SDS011;32569;51.762;8.564;2024-01-27T12:52:13;5.07;;;2.50;;
15230;SDS011;32569;51.762;8.564;2024-01-27T12:54:41;4.50;;;2.17;;
15230;SDS011;32569;51.762;8.564;2024-01-27T12:57:07;2.63;;;2.20;;
15230;SDS011;32569;51.762;8.564;2024-01-27T12:59:34;3.20;;;2.13;;
15230;SDS011;32569;51.762;8.564;2024-01-27T13:02:06;4.17;;;2.53;;
15230;SDS011;32569;51.762;8.564;2024-01-27T13:04:33;3.60;;;2.10;;
15230;SDS011;32569;51.762;8.564;2024-01-27T13:07:00;2.47;;;2.23;;
15230;SDS011;32569;51.762;8.564;2024-01-27T13:09:26;3.00;;;2.10;;
15230;SDS011;32569;51.762;8.564;2024-01-27T13:11:54;3.93;;;2.43;;
15230;SDS011;32569;51.762;8.564;2024-01-27T13:14:21;3.77;;;2.10;;
15230;SDS011;32569;51.762;8.564;2024-01-27T13:16:47;3.30;;;2.20;;
15230;SDS011;32569;51.762;8.564;2024-01-27T13:19:14;1.93;;;1.73;;
15230;SDS011;32569;51.762;8.564;2024-01-27T13:21:41;2.90;;;1.70;;
15230;SDS011;32569;51.762;8.564;2024-01-27T13:24:07;3.30;;;2.13;;
15230;SDS011;32569;51.762;8.564;2024-01-27T13:26:34;3.60;;;2.87;;
15230;SDS011;32569;51.762;8.564;2024-01-27T13:29:04;2.37;;;1.80;;
15230;SDS011;32569;51.762;8.564;2024-01-27T13:31:30;5.87;;;3.00;;
15230;SDS011;32569;51.762;8.564;2024-01-27T13:33:58;3.33;;;2.30;;
15230;SDS011;32569;51.762;8.564;2024-01-27T13:36:25;2.50;;;2.00;;
15230;SDS011;32569;51.762;8.564;2024-01-27T13:38:51;2.37;;;2.17;;
15230;SDS011;32569;51.762;8.564;2024-01-27T13:41:18;3.10;;;2.03;;
15230;SDS011;32569;51.762;8.564;2024-01-27T13:43:46;3.00;;;2.03;;
15230;SDS011;32569;51.762;8.564;2024-01-27T13:46:14;3.23;;;2.00;;
15230;SDS011;32569;51.762;8.564;2024-01-27T13:48:40;3.17;;;2.40;;
15230;SDS011;32569;51.762;8.564;2024-01-27T13:51:07;3.60;;;2.23;;
15230;SDS011;32569;51.762;8.564;2024-01-27T13:53:34;2.60;;;2.00;;
15230;SDS011;32569;51.762;8.564;2024-01-27T13:56:00;3.93;;;2.10;;
15230;SDS011;32569;51.762;8.564;2024-01-27T13:58:27;3.00;;;2.20;;
15230;SDS011;32569;51.762;8.564;2024-01-27T14:00:54;2.70;;;2.07;;
15230;SDS011;32569;51.762;8.564;2024-01-27T14:03:22;3.43;;;1.90;;
15230;SDS011;32569;51.762;8.564;2024-01-27T14:05:49;4.53;;;2.47;;
15230;SDS011;32569;51.762;8.564;2024-01-27T14:08:16;3.83;;;2.37;;
15230;SDS011;32569;51.762;8.564;2024-01-27T14:10:44;2.63;;;2.20;;
15230;SDS011;32569;51.762;8.564;2024-01-27T14:13:13;4.33;;;2.67;;
15230;SDS011;32569;51.762;8.564;2024-01-27T14:15:39;3.97;;;2.30;;
15230;SDS011;32569;51.762;8.564;2024-01-27T14:18:06;2.80;;;2.20;;
15230;SDS011;32569;51.762;8.564;2024-01-27T14:20:36;2.87;;;2.03;;
15230;SDS011;32569;51.762;8.564;2024-01-27T14:23:02;3.10;;;2.10;;
15230;SDS011;32569;51.762;8.564;2024-01-27T14:25:29;2.47;;;2.20;;
15230;SDS011;32569;51.762;8.564;2024-01-27T14:27:56;3.93;;;2.30;;
15230;SDS011;32569;51.762;8.564;2024-01-27T14:30:22;4.03;;;2.50;;
15230;SDS011;32569;51.762;8.564;2024-01-27T14:32:49;4.40;;;2.83;;
15230;SDS011;32569;51.762;8.564;2024-01-27T14:35:16;3.33;;;2.80;;
15230;SDS011;32569;51.762;8.564;2024-01-27T14:37:44;2.77;;;2.07;;
15230;SDS011;32569;51.762;8.564;2024-01-27T14:40:11;3.30;;;2.20;;
15230;SDS011;32569;51.762;8.564;2024-01-27T14:42:39;3.23;;;2.33;;
15230;SDS011;32569;51.762;8.564;2024-01-27T14:45:07;3.90;;;1.90;;
15230;SDS011;32569;51.762;8.564;2024-01-27T14:47:34;3.63;;;2.30;;
15230;SDS011;32569;51.762;8.564;2024-01-27T14:50:01;3.23;;;2.50;;